Time;durP1;ratioP1;P1;durP2;ratioP2;P2;SDS_P1;SDS_P2;PMS_P1;PMS_P2;Temp;Humidity;BMP_temperature;BMP_pressure;BME280_temperature;BME280_humidity;BME280_pressure;Samples;Min_cycle;Max_cycle;Signal;HPM_P1;HPM_P2
2020/12/20 00:00:42;;;;;;;51.45;23.02;;;;;;;-0.86;83.58;101012.09;2121729;82;21572;-71
2020/12/20 00:03:45;;;;;;;44.40;20.68;;;;;;;-0.88;83.67;101003.95;2118337;82;21115;-71
2020/12/20 00:06:47;;;;;;;40.23;21.57;;;;;;;-0.90;83.70;101007.95;2114218;82;21464;-72
2020/12/20 00:09:48;;;;;;;44.70;22.80;;;;;;;-0.89;83.72;101003.11;2119435;82;21509;-78
2020/12/20 00:12:50;;;;;;;42.10;22.70;;;;;;;-0.92;83.63;101005.40;2122592;82;21106;-78
2020/12/20 00:15:51;;;;;;;39.80;19.77;;;;;;;-0.93;83.67;100998.94;2116082;82;21534;-72
2020/12/20 00:18:53;;;;;;;45.12;22.98;;;;;;;-0.96;83.50;100994.75;2115487;82;21113;-71
2020/12/20 00:21:58;;;;;;;44.55;22.32;;;;;;;-1.00;83.48;100997.09;2116267;82;21176;-71
2020/12/20 00:25:01;;;;;;;41.65;21.33;;;;;;;-1.04;83.54;100995.99;2119853;82;21162;-72
2020/12/20 00:28:02;;;;;;;39.25;19.37;;;;;;;-1.07;83.74;100991.80;2119518;82;21590;-71
2020/12/20 00:31:03;;;;;;;38.40;20.57;;;;;;;-1.07;83.72;100991.80;2119167;82;21119;-71
2020/12/20 00:34:06;;;;;;;37.23;19.48;;;;;;;-1.06;83.74;100992.17;2117043;82;22404;-71
2020/12/20 00:37:08;;;;;;;45.50;22.67;;;;;;;-1.07;83.64;100994.41;2115251;83;21184;-71
2020/12/20 00:40:11;;;;;;;37.48;19.37;;;;;;;-1.08;83.66;100990.55;2119972;82;21704;-71
2020/12/20 00:43:12;;;;;;;37.28;18.62;;;;;;;-1.10;83.63;100989.77;2113779;82;21571;-71
2020/12/20 00:46:14;;;;;;;43.38;21.87;;;;;;;-1.09;83.70;100997.53;2120604;82;21630;-71
2020/12/20 00:49:15;;;;;;;36.77;17.73;;;;;;;-1.06;83.79;100999.98;2121567;82;21192;-73
2020/12/20 00:52:17;;;;;;;37.28;19.90;;;;;;;-1.00;83.83;100998.86;2120018;82;21116;-77
2020/12/20 00:55:18;;;;;;;34.38;18.05;;;;;;;-0.99;83.84;101002.67;2115081;82;21536;-74
2020/12/20 00:58:20;;;;;;;34.15;16.77;;;;;;;-0.98;83.93;100999.17;2118496;82;21156;-71
2020/12/20 01:01:24;;;;;;;36.13;18.45;;;;;;;-0.97;83.84;101003.92;2118758;82;21137;-72
2020/12/20 01:04:26;;;;;;;38.63;19.02;;;;;;;-0.97;83.77;101005.23;2099233;82;21146;-71
2020/12/20 01:07:32;;;;;;;35.00;18.70;;;;;;;-1.01;83.72;101005.84;2117292;82;21243;-71
2020/12/20 01:10:33;;;;;;;38.58;19.80;;;;;;;-1.05;83.78;100999.06;2119772;82;21173;-71
2020/12/20 01:13:36;;;;;;;38.92;19.40;;;;;;;-1.06;83.85;101003.05;2119694;82;21145;-71
2020/12/20 01:16:37;;;;;;;34.92;19.12;;;;;;;-1.07;83.95;100997.01;2117623;82;21176;-72
2020/12/20 01:19:39;;;;;;;36.45;19.25;;;;;;;-1.03;84.05;100995.94;2115180;82;21667;-71
2020/12/20 01:22:41;;;;;;;37.80;20.52;;;;;;;-0.99;84.08;100997.93;2117138;82;21192;-73
2020/12/20 01:25:43;;;;;;;43.35;22.13;;;;;;;-0.96;84.10;100997.35;2122400;82;21189;-72
2020/12/20 01:28:46;;;;;;;36.90;20.23;;;;;;;-0.97;84.17;100995.64;2118251;82;21683;-75
2020/12/20 01:31:50;;;;;;;40.45;20.37;;;;;;;-1.02;84.09;100988.96;2117638;82;21097;-71
2020/12/20 01:34:53;;;;;;;37.83;20.27;;;;;;;-1.05;84.11;100992.55;2121197;82;21733;-75
2020/12/20 01:37:55;;;;;;;41.75;20.55;;;;;;;-1.07;84.25;100979.20;2114645;82;21199;-71
2020/12/20 01:40:56;;;;;;;39.92;20.23;;;;;;;-1.08;84.27;100982.27;2115637;82;21125;-71
2020/12/20 01:43:59;;;;;;;38.20;20.15;;;;;;;-1.07;84.28;100974.86;2118628;82;21187;-71
2020/12/20 01:47:09;;;;;;;37.73;19.45;;;;;;;-1.07;84.18;100980.08;2118151;82;21541;-72
2020/12/20 01:50:12;;;;;;;38.92;20.12;;;;;;;-1.06;84.16;100975.70;2115535;82;21212;-71
2020/12/20 01:53:14;;;;;;;38.45;20.15;;;;;;;-1.04;84.21;100977.75;2113948;82;21125;-74
2020/12/20 01:56:19;;;;;;;39.75;20.75;;;;;;;-1.03;84.21;100976.40;2095063;82;21176;-73
2020/12/20 01:59:22;;;;;;;44.05;21.70;;;;;;;-1.01;84.23;100973.27;2115094;83;21098;-71
2020/12/20 02:02:25;;;;;;;42.93;20.57;;;;;;;-1.00;84.21;100975.41;2115291;82;21594;-72
2020/12/20 02:05:28;;;;;;;41.65;20.50;;;;;;;-1.00;84.33;100976.25;2113535;82;21185;-71
2020/12/20 02:08:30;;;;;;;43.25;20.48;;;;;;;-0.97;84.37;100984.38;2117474;82;21196;-72
2020/12/20 02:11:33;;;;;;;41.23;21.82;;;;;;;-0.97;84.57;100985.69;2119027;82;21570;-72
2020/12/20 02:14:37;;;;;;;40.00;20.57;;;;;;;-0.98;84.52;100982.70;2116834;82;22302;-71
2020/12/20 02:17:39;;;;;;;44.00;22.25;;;;;;;-0.99;84.48;100984.44;2122545;82;21102;-71
2020/12/20 02:20:41;;;;;;;38.67;20.30;;;;;;;-0.99;84.43;100977.92;2117079;82;21180;-71
2020/12/20 02:23:47;;;;;;;40.38;20.43;;;;;;;-0.99;84.41;100978.39;2100074;82;21453;-71
2020/12/20 02:26:51;;;;;;;38.85;20.27;;;;;;;-0.96;84.70;100970.43;2116223;83;21169;-71
2020/12/20 02:29:54;;;;;;;37.15;19.32;;;;;;;-0.94;84.70;100971.20;2117061;82;21157;-72
2020/12/20 02:32:55;;;;;;;36.90;19.27;;;;;;;-0.95;84.97;100966.47;2102253;83;21580;-72
2020/12/20 02:35:58;;;;;;;35.43;18.57;;;;;;;-0.95;84.84;100961.25;2117156;82;21205;-72
2020/12/20 02:39:00;;;;;;;39.95;19.65;;;;;;;-0.93;85.12;100967.24;2114673;82;21210;-79
2020/12/20 02:42:06;;;;;;;36.15;18.17;;;;;;;-0.91;84.88;100968.45;2116196;82;21173;-78
2020/12/20 02:45:09;;;;;;;35.10;19.02;;;;;;;-0.89;84.77;100965.33;2116880;82;21157;-71
2020/12/20 02:48:12;;;;;;;35.45;18.70;;;;;;;-0.86;84.68;100968.25;2119166;82;21188;-72
2020/12/20 02:51:15;;;;;;;33.23;17.80;;;;;;;-0.86;84.65;100968.25;2115427;82;21757;-71
2020/12/20 02:54:18;;;;;;;35.33;17.48;;;;;;;-0.85;84.75;100968.16;2114755;82;21133;-80
2020/12/20 02:57:20;;;;;;;30.82;16.65;;;;;;;-0.86;84.63;100962.58;2118016;82;21226;-79
2020/12/20 03:00:23;;;;;;;39.05;18.75;;;;;;;-0.83;84.58;100968.94;2109195;82;21142;-71
2020/12/20 03:03:26;;;;;;;36.05;17.95;;;;;;;-0.81;84.62;100969.72;2115300;82;21179;-71
2020/12/20 03:06:29;;;;;;;34.27;18.75;;;;;;;-0.81;84.62;100967.58;2118091;82;21187;-75
2020/12/20 03:09:32;;;;;;;28.05;15.80;;;;;;;-0.83;84.61;100961.12;2096244;83;21538;-71
2020/12/20 03:12:34;;;;;;;32.10;17.25;;;;;;;-0.85;84.34;100966.86;2085852;83;21213;-74
2020/12/20 03:15:38;;;;;;;31.33;16.40;;;;;;;-0.87;84.34;100963.94;2083992;83;21213;-72
2020/12/20 03:18:40;;;;;;;35.30;19.35;;;;;;;-0.88;84.39;100947.92;2083164;83;21141;-71
2020/12/20 03:21:41;;;;;;;29.70;16.00;;;;;;;-0.93;84.35;100958.56;2085610;83;21139;-75
2020/12/20 03:24:54;;;;;;;30.68;16.42;;;;;;;-0.96;84.45;100958.27;2083695;82;21124;-72
2020/12/20 03:27:57;;;;;;;27.07;14.15;;;;;;;-0.96;84.60;100954.36;2076607;83;21187;-72
2020/12/20 03:31:17;;;;;;;26.47;14.77;;;;;;;-0.96;84.58;100941.34;2083340;83;21697;-72
2020/12/20 03:34:20;;;;;;;27.10;15.18;;;;;;;-0.96;84.57;100940.47;2029598;85;21175;-79
2020/12/20 03:37:23;;;;;;;30.43;16.52;;;;;;;-1.01;84.55;100939.87;2038682;86;21613;-73
2020/12/20 03:40:29;;;;;;;29.87;16.73;;;;;;;-0.97;84.61;100939.63;2044244;86;21576;-72
2020/12/20 03:43:31;;;;;;;34.08;16.95;;;;;;;-0.96;84.65;100943.08;2038137;85;21136;-78
2020/12/20 03:46:34;;;;;;;29.75;16.32;;;;;;;-0.95;84.67;100938.27;2070764;83;21139;-72
2020/12/20 03:49:35;;;;;;;31.65;17.12;;;;;;;-0.94;84.68;100946.00;2068775;84;21212;-72
2020/12/20 03:52:37;;;;;;;30.90;16.87;;;;;;;-0.94;84.65;100935.58;2072134;83;21644;-72
2020/12/20 03:55:41;;;;;;;30.43;16.37;;;;;;;-0.95;84.65;100940.88;2071902;82;21562;-72
2020/12/20 03:58:43;;;;;;;31.00;15.20;;;;;;;-0.97;84.65;100943.53;2070320;84;21183;-72
2020/12/20 04:01:45;;;;;;;26.17;15.38;;;;;;;-0.94;84.63;100949.06;2072051;84;21136;-72
2020/12/20 04:04:47;;;;;;;26.30;15.85;;;;;;;-0.94;84.52;100943.39;2053581;83;21104;-75
2020/12/20 04:07:49;;;;;;;28.73;16.30;;;;;;;-0.91;84.62;100955.43;2071949;82;21614;-78
2020/12/20 04:10:52;;;;;;;27.50;14.55;;;;;;;-0.91;84.61;100953.66;2117222;82;21656;-72
2020/12/20 04:13:53;;;;;;;24.63;14.55;;;;;;;-0.92;84.63;100956.36;2120684;82;21153;-72
2020/12/20 04:16:55;;;;;;;26.77;15.18;;;;;;;-0.95;84.64;100945.63;2120303;82;21121;-72
2020/12/20 04:19:57;;;;;;;29.12;17.20;;;;;;;-0.97;84.62;100957.03;2119034;82;21089;-72
2020/12/20 04:23:09;;;;;;;24.47;14.58;;;;;;;-0.98;84.66;100952.75;2119615;82;21538;-72
2020/12/20 04:26:13;;;;;;;30.40;16.57;;;;;;;-1.02;84.67;100953.33;2115770;82;21589;-75
2020/12/20 04:29:16;;;;;;;27.00;15.28;;;;;;;-1.05;84.64;100946.13;2086236;82;21114;-72
2020/12/20 04:32:20;;;;;;;29.98;15.83;;;;;;;-1.06;84.62;100949.66;2108138;82;21097;-72
2020/12/20 04:35:22;;;;;;;27.98;15.75;;;;;;;-1.04;84.63;100949.10;2118770;82;21126;-77
2020/12/20 04:38:23;;;;;;;29.75;16.82;;;;;;;-1.03;84.70;100948.20;2120658;82;21712;-75
2020/12/20 04:41:25;;;;;;;26.87;15.13;;;;;;;-1.06;84.69;100945.28;2124752;82;21134;-72
2020/12/20 04:44:29;;;;;;;25.72;14.00;;;;;;;-1.05;84.64;100946.13;2115436;82;21125;-72
2020/12/20 04:47:33;;;;;;;27.65;15.70;;;;;;;-1.06;84.61;100948.35;2117388;82;21099;-72
2020/12/20 04:50:34;;;;;;;28.10;16.23;;;;;;;-1.08;84.64;100950.17;2118289;82;21132;-72
2020/12/20 04:53:36;;;;;;;26.07;14.50;;;;;;;-1.11;84.63;100943.34;2118260;82;21192;-72
2020/12/20 04:56:39;;;;;;;27.40;15.18;;;;;;;-1.15;84.59;100951.77;2121365;82;21546;-72
2020/12/20 04:59:43;;;;;;;26.33;16.15;;;;;;;-1.17;84.59;100952.30;2122757;82;21556;-72
2020/12/20 05:02:47;;;;;;;26.30;14.75;;;;;;;-1.17;84.60;100956.66;2125462;82;21580;-73
2020/12/20 05:05:50;;;;;;;28.90;15.50;;;;;;;-1.16;84.62;100960.95;2115142;82;21094;-72
2020/12/20 05:09:05;;;;;;;26.97;15.75;;;;;;;-1.15;84.67;100961.35;2105710;83;21168;-72
2020/12/20 05:12:24;;;;;;;24.67;15.18;;;;;;;-1.19;84.55;100968.44;2073168;84;21118;-78
2020/12/20 05:15:26;;;;;;;27.45;15.10;;;;;;;-1.21;84.58;100964.21;2073688;84;21184;-71
2020/12/20 05:18:49;;;;;;;30.60;16.65;;;;;;;-1.24;84.77;100963.05;2075984;84;21551;-71
2020/12/20 05:21:52;;;;;;;29.37;15.30;;;;;;;-1.28;84.70;100965.42;2076664;84;21172;-71
2020/12/20 05:24:55;;;;;;;27.67;15.35;;;;;;;-1.31;84.66;100969.48;2071931;84;21560;-75
2020/12/20 05:28:21;;;;;;;27.37;15.43;;;;;;;-1.34;84.68;100969.62;2069312;84;21632;-72
2020/12/20 05:31:30;;;;;;;26.20;15.13;;;;;;;-1.38;84.66;100964.55;2073334;84;21201;-71
2020/12/20 05:34:33;;;;;;;28.10;15.95;;;;;;;-1.38;84.75;100972.80;2077537;84;21199;-71
2020/12/20 05:37:36;;;;;;;28.75;15.70;;;;;;;-1.43;84.88;100965.67;2071752;84;21201;-77
2020/12/20 05:40:42;;;;;;;30.15;16.23;;;;;;;-1.49;84.91;100976.34;2075245;84;21121;-78
2020/12/20 05:43:44;;;;;;;28.75;15.90;;;;;;;-1.50;84.91;100971.59;2049159;84;21560;-71
2020/12/20 05:46:47;;;;;;;28.05;15.38;;;;;;;-1.46;84.89;100978.83;2074818;84;21185;-71
2020/12/20 05:49:49;;;;;;;28.23;15.58;;;;;;;-1.47;84.92;100976.66;2056656;84;21150;-80
2020/12/20 05:53:05;;;;;;;28.67;15.80;;;;;;;-1.47;84.94;100972.76;2074510;83;21124;-72
2020/12/20 05:56:07;;;;;;;28.10;16.17;;;;;;;-1.46;84.83;100974.47;2072334;83;21175;-72
2020/12/20 05:59:12;;;;;;;28.73;16.05;;;;;;;-1.44;84.85;100976.52;2073088;83;21140;-75
2020/12/20 06:02:14;;;;;;;31.12;16.12;;;;;;;-1.41;84.85;100982.92;2075853;84;21104;-79
2020/12/20 06:05:17;;;;;;;31.10;15.38;;;;;;;-1.41;84.84;100980.31;2076114;84;21161;-74
2020/12/20 06:08:22;;;;;;;31.55;17.05;;;;;;;-1.41;84.94;100985.52;2071533;84;24041;-74
2020/12/20 06:11:25;;;;;;;24.25;14.80;;;;;;;-1.37;84.90;100984.45;2070461;83;21192;-73
2020/12/20 06:14:29;;;;;;;29.10;17.25;;;;;;;-1.33;84.87;100989.52;2068726;83;21224;-75
2020/12/20 06:17:34;;;;;;;29.05;17.32;;;;;;;-1.29;84.87;100996.30;2074140;83;21228;-73
2020/12/20 06:21:00;;;;;;;29.20;16.60;;;;;;;-1.29;84.84;100997.14;2050816;84;21522;-73
2020/12/20 06:24:05;;;;;;;27.20;15.65;;;;;;;-1.30;84.78;101001.09;2075889;83;21128;-72
2020/12/20 06:27:10;;;;;;;25.20;14.33;;;;;;;-1.31;84.74;100999.42;2047926;83;21188;-72
2020/12/20 06:30:11;;;;;;;26.68;15.78;;;;;;;-1.32;84.71;101006.83;2070269;82;21164;-73
2020/12/20 06:33:36;;;;;;;25.05;13.60;;;;;;;-1.35;84.70;101010.44;2072767;83;21139;-73
2020/12/20 06:36:40;;;;;;;28.65;14.58;;;;;;;-1.32;84.78;101006.83;2069573;83;21128;-80
2020/12/20 06:39:41;;;;;;;27.75;14.63;;;;;;;-1.38;84.72;101009.25;2070921;83;21158;-77
2020/12/20 06:42:44;;;;;;;24.12;13.22;;;;;;;-1.39;84.60;101007.56;2073496;82;21156;-78
2020/12/20 06:45:47;;;;;;;24.30;14.35;;;;;;;-1.44;84.64;101018.17;2068753;83;21153;-85
2020/12/20 06:48:48;;;;;;;25.90;13.95;;;;;;;-1.48;84.74;101009.28;2073781;83;21184;-74
2020/12/20 06:51:50;;;;;;;21.25;13.08;;;;;;;-1.48;84.76;101011.42;2073694;82;21544;-77
2020/12/20 06:55:09;;;;;;;22.52;13.03;;;;;;;-1.50;84.70;101004.13;2070969;83;21153;-78
2020/12/20 06:58:20;;;;;;;22.77;13.70;;;;;;;-1.53;84.63;101005.58;2069521;83;21155;-74
2020/12/20 07:01:37;;;;;;;24.50;14.03;;;;;;;-1.54;84.77;100993.95;2045705;82;22077;-81
2020/12/20 07:04:40;;;;;;;26.30;14.90;;;;;;;-1.51;84.89;101006.36;2072963;84;21127;-79
2020/12/20 07:07:46;;;;;;;26.52;14.63;;;;;;;-1.50;84.94;101009.80;2071225;82;21173;-73
2020/12/20 07:10:52;;;;;;;25.20;14.47;;;;;;;-1.49;84.95;101012.35;2066102;83;21590;-74
2020/12/20 07:13:55;;;;;;;24.23;14.07;;;;;;;-1.42;85.01;101012.91;2076354;83;21131;-72
2020/12/20 07:16:57;;;;;;;23.05;13.78;;;;;;;-1.34;85.01;101012.58;2076485;84;21133;-72
2020/12/20 07:20:14;;;;;;;21.55;12.93;;;;;;;-1.27;85.04;101013.98;2081780;83;21168;-72
2020/12/20 07:23:15;;;;;;;20.10;11.95;;;;;;;-1.19;85.00;101011.88;2076041;84;21153;-74
2020/12/20 07:26:16;;;;;;;24.60;14.65;;;;;;;-1.09;84.90;101010.55;2070993;83;21117;-74
2020/12/20 07:29:19;;;;;;;25.62;14.68;;;;;;;-1.07;84.73;101018.28;2075949;84;21094;-76
2020/12/20 07:32:22;;;;;;;25.52;14.43;;;;;;;-1.02;84.83;101014.55;2071845;84;21088;-76
2020/12/20 07:35:23;;;;;;;25.70;14.45;;;;;;;-0.96;84.85;101023.41;2074011;84;21524;-77
2020/12/20 07:38:25;;;;;;;21.50;12.88;;;;;;;-0.86;84.79;101021.67;2079296;84;21271;-74
2020/12/20 07:41:26;;;;;;;24.37;13.45;;;;;;;-0.72;84.90;101020.09;2077910;84;21124;-74
2020/12/20 07:44:28;;;;;;;22.90;13.45;;;;;;;-0.54;84.89;101018.83;2076357;84;21180;-77
2020/12/20 07:47:29;;;;;;;25.85;14.55;;;;;;;-0.34;84.72;101015.25;2071527;83;21809;-78
2020/12/20 07:50:31;;;;;;;27.20;15.15;;;;;;;-0.19;84.42;101011.06;2076261;84;21224;-73
2020/12/20 07:53:32;;;;;;;23.52;12.93;;;;;;;0.03;84.46;101013.42;2071675;84;21572;-67
2020/12/20 07:56:39;;;;;;;26.30;14.38;;;;;;;0.24;84.40;101012.34;2072220;84;21093;-71
2020/12/20 07:59:41;;;;;;;24.67;15.93;;;;;;;0.47;84.12;101016.37;2075890;84;21504;-70
2020/12/20 08:02:42;;;;;;;31.68;15.83;;;;;;;0.70;84.04;101013.84;2075251;83;21082;-67
2020/12/20 08:05:44;;;;;;;27.60;15.45;;;;;;;0.91;83.66;101022.79;2074085;84;21223;-66
2020/12/20 08:08:45;;;;;;;25.25;13.98;;;;;;;1.05;83.59;101022.88;2075187;84;21136;-67
2020/12/20 08:11:49;;;;;;;24.12;13.48;;;;;;;1.27;83.24;101029.09;2114144;82;21233;-71
2020/12/20 08:15:08;;;;;;;24.85;14.35;;;;;;;1.48;82.90;101034.41;2118798;82;21126;-70
2020/12/20 08:18:10;;;;;;;26.07;15.18;;;;;;;1.67;82.67;101042.08;2119139;82;21122;-74
2020/12/20 08:21:14;;;;;;;26.77;15.13;;;;;;;1.86;82.47;101039.26;2118303;82;21129;-70
2020/12/20 08:24:16;;;;;;;24.32;14.83;;;;;;;2.05;82.29;101040.80;2122922;82;21545;-69
2020/12/20 08:27:24;;;;;;;24.87;13.93;;;;;;;2.37;82.31;101032.36;2119171;82;21128;-72
2020/12/20 08:30:25;;;;;;;27.07;14.55;;;;;;;2.64;81.96;101026.73;2116634;82;21083;-68
2020/12/20 08:33:34;;;;;;;21.52;12.63;;;;;;;2.78;81.09;101020.66;2117875;82;21508;-69
2020/12/20 08:36:39;;;;;;;25.12;13.22;;;;;;;2.92;80.24;101022.42;2118841;82;21200;-69
2020/12/20 08:39:40;;;;;;;21.87;13.32;;;;;;;3.00;80.30;101020.17;2115350;82;21408;-69
2020/12/20 08:42:44;;;;;;;20.55;13.30;;;;;;;3.14;79.74;101020.62;2112455;82;21516;-81
2020/12/20 08:45:45;;;;;;;19.25;13.00;;;;;;;3.24;79.38;101035.29;2119346;82;21170;-81
2020/12/20 08:48:47;;;;;;;19.10;12.60;;;;;;;3.45;80.28;101035.72;2118547;82;21140;-81
2020/12/20 08:51:51;;;;;;;22.48;13.53;;;;;;;3.70;79.97;101033.66;2120972;82;21229;-81
2020/12/20 08:54:55;;;;;;;21.05;12.28;;;;;;;3.83;79.39;101030.61;2118374;82;21955;-76
2020/12/20 08:58:08;;;;;;;20.35;12.00;;;;;;;4.06;79.38;101032.19;2121592;82;21115;-84
2020/12/20 09:01:09;;;;;;;18.52;10.93;;;;;;;4.26;79.08;101027.27;2115931;82;21679;-70
2020/12/20 09:04:11;;;;;;;16.60;10.00;;;;;;;4.42;78.37;101032.33;2121609;82;21129;-71
2020/12/20 09:07:15;;;;;;;17.98;10.25;;;;;;;4.42;76.44;101034.09;2119498;82;21137;-72
2020/12/20 09:10:30;;;;;;;17.17;11.03;;;;;;;4.38;75.87;101026.89;2120115;82;21220;-72
2020/12/20 09:13:32;;;;;;;18.42;10.80;;;;;;;4.36;76.40;101028.78;2120953;82;21168;-79
2020/12/20 09:16:42;;;;;;;15.95;10.03;;;;;;;4.54;77.37;101031.95;2121744;82;21154;-72
2020/12/20 09:19:49;;;;;;;15.85;10.18;;;;;;;4.71;77.33;101032.10;2120333;82;21600;-70
2020/12/20 09:22:57;;;;;;;16.30;8.95;;;;;;;4.82;76.28;101032.20;2120666;82;21121;-71
2020/12/20 09:26:01;;;;;;;16.82;9.60;;;;;;;4.85;75.80;101031.14;2120785;82;21149;-70
2020/12/20 09:29:07;;;;;;;16.05;9.95;;;;;;;4.92;76.45;101031.89;2122632;82;21869;-72
2020/12/20 09:32:11;;;;;;;15.85;9.83;;;;;;;5.06;75.01;101030.09;2119230;82;21165;-75
2020/12/20 09:35:12;;;;;;;19.57;9.83;;;;;;;5.06;74.79;101031.41;2118280;82;21153;-71
2020/12/20 09:38:14;;;;;;;16.35;9.63;;;;;;;5.03;74.08;101030.31;2119402;82;21132;-75
2020/12/20 09:41:24;;;;;;;17.12;10.15;;;;;;;5.10;74.61;101026.31;2120319;82;21105;-71
2020/12/20 09:44:25;;;;;;;19.53;10.90;;;;;;;5.08;74.19;101030.34;2121004;82;21170;-73
2020/12/20 09:47:27;;;;;;;15.75;10.48;;;;;;;5.13;73.93;101023.45;2116884;82;21493;-72
2020/12/20 09:50:29;;;;;;;22.75;11.57;;;;;;;5.22;74.62;101029.37;2120513;82;21054;-81
2020/12/20 09:53:30;;;;;;;16.35;9.98;;;;;;;5.26;74.02;101026.86;2121257;82;21115;-72
2020/12/20 09:56:32;;;;;;;17.25;10.38;;;;;;;5.36;74.08;101031.01;2117088;82;21157;-72
2020/12/20 09:59:33;;;;;;;20.08;11.00;;;;;;;5.45;74.37;101035.59;2121469;82;21209;-74
2020/12/20 10:02:34;;;;;;;17.20;10.20;;;;;;;5.60;73.59;101033.63;2121655;82;21208;-80
2020/12/20 10:05:39;;;;;;;16.55;9.75;;;;;;;5.60;72.79;101026.60;2122346;82;21114;-74
2020/12/20 10:08:41;;;;;;;19.60;11.20;;;;;;;5.60;71.75;101027.91;2117454;82;21608;-75
2020/12/20 10:11:43;;;;;;;19.82;11.60;;;;;;;5.49;72.34;101026.99;2089461;83;21285;-76
2020/12/20 10:14:44;;;;;;;18.40;10.40;;;;;;;5.47;72.65;101029.75;2114074;82;21176;-76
2020/12/20 10:17:47;;;;;;;16.50;10.40;;;;;;;5.59;72.59;101022.27;2114275;82;21206;-80
2020/12/20 10:20:48;;;;;;;18.37;10.65;;;;;;;5.64;72.23;101016.67;2124097;82;21242;-76
2020/12/20 10:23:50;;;;;;;15.95;10.15;;;;;;;5.55;71.18;101018.19;2119177;82;21296;-76
2020/12/20 10:26:51;;;;;;;13.60;9.03;;;;;;;5.53;72.35;101011.36;2112255;82;21446;-81
2020/12/20 10:29:53;;;;;;;16.17;9.28;;;;;;;5.51;70.15;101012.77;2118444;82;21116;-74
2020/12/20 10:32:55;;;;;;;18.85;10.65;;;;;;;5.47;71.48;101017.08;2113659;82;21502;-73
2020/12/20 10:35:57;;;;;;;20.00;10.05;;;;;;;5.51;71.73;101011.94;2114170;82;21105;-74
2020/12/20 10:38:58;;;;;;;19.17;11.03;;;;;;;5.40;70.40;101002.19;2119038;82;21609;-73
2020/12/20 10:42:00;;;;;;;23.07;11.45;;;;;;;5.23;71.11;101011.30;2115877;82;21121;-73
2020/12/20 10:45:04;;;;;;;17.05;10.43;;;;;;;5.19;70.61;101018.23;2116962;82;21100;-74
2020/12/20 10:48:05;;;;;;;16.52;10.50;;;;;;;5.02;70.16;101016.32;2118549;82;21153;-74
2020/12/20 10:51:09;;;;;;;17.95;10.30;;;;;;;4.94;70.74;101009.45;2120437;82;21160;-76
2020/12/20 10:54:10;;;;;;;17.05;9.68;;;;;;;4.90;70.45;101009.31;2119787;82;21131;-74
2020/12/20 10:57:12;;;;;;;16.10;10.20;;;;;;;4.84;70.74;101007.09;2120601;82;21125;-76
2020/12/20 11:00:13;;;;;;;16.97;10.30;;;;;;;4.88;71.23;101004.14;2122851;82;21516;-73
2020/12/20 11:03:15;;;;;;;17.00;9.58;;;;;;;4.90;70.88;101006.20;2120603;82;21161;-74
2020/12/20 11:06:22;;;;;;;20.92;11.25;;;;;;;5.00;71.27;101012.12;2119048;82;21074;-74
2020/12/20 11:09:26;;;;;;;21.75;10.85;;;;;;;5.12;71.67;101011.23;2114660;82;21185;-79
2020/12/20 11:12:27;;;;;;;17.48;9.55;;;;;;;5.08;70.66;101000.09;2118758;82;21150;-74
2020/12/20 11:15:29;;;;;;;15.23;9.80;;;;;;;5.00;70.62;100999.80;2117608;82;21166;-76
2020/12/20 11:18:30;;;;;;;17.27;9.80;;;;;;;4.91;70.60;101006.56;2121406;82;21100;-74
2020/12/20 11:21:32;;;;;;;14.07;8.83;;;;;;;4.92;71.47;101013.48;2122564;82;22568;-73
2020/12/20 11:24:34;;;;;;;15.20;9.28;;;;;;;5.02;71.01;101011.06;2123247;82;22170;-75
2020/12/20 11:27:35;;;;;;;14.00;8.05;;;;;;;4.97;70.57;101009.70;2119599;82;21176;-75
2020/12/20 11:30:37;;;;;;;18.32;9.85;;;;;;;4.94;70.33;101010.28;2115745;82;21102;-74
2020/12/20 11:33:39;;;;;;;16.90;9.78;;;;;;;4.99;71.38;101007.81;2119716;82;21626;-86
2020/12/20 11:36:42;;;;;;;16.35;9.23;;;;;;;5.05;70.96;101010.00;2121233;82;21175;-74
2020/12/20 11:39:43;;;;;;;14.70;8.73;;;;;;;5.02;70.77;101006.28;2119504;82;21151;-80
2020/12/20 11:42:45;;;;;;;14.65;8.20;;;;;;;4.98;70.52;101004.80;2120613;82;21133;-74
2020/12/20 11:45:46;;;;;;;16.73;8.25;;;;;;;4.92;70.42;101007.39;2114509;82;21081;-79
2020/12/20 11:48:48;;;;;;;12.75;7.53;;;;;;;4.82;70.48;101005.90;2121076;82;21112;-82
2020/12/20 11:51:50;;;;;;;11.40;8.05;;;;;;;4.76;70.98;101008.09;2126442;82;21138;-78
2020/12/20 11:54:51;;;;;;;14.85;8.05;;;;;;;4.69;70.63;101007.70;2123143;82;21150;-75
2020/12/20 11:57:53;;;;;;;12.78;7.50;;;;;;;4.66;71.35;101005.28;2100953;82;21101;-75
2020/12/20 12:00:54;;;;;;;13.93;7.55;;;;;;;4.72;71.73;101006.16;2121879;82;21126;-75
2020/12/20 12:03:56;;;;;;;13.55;7.53;;;;;;;4.74;71.03;101000.81;2120980;82;21170;-75
2020/12/20 12:06:57;;;;;;;14.47;8.40;;;;;;;4.69;71.14;101006.38;2120638;82;21100;-82
2020/12/20 12:10:01;;;;;;;14.07;7.87;;;;;;;4.66;71.68;101006.13;2122894;82;21133;-82
2020/12/20 12:13:02;;;;;;;16.15;7.90;;;;;;;4.69;71.63;101008.53;2117943;82;21234;-75
2020/12/20 12:16:04;;;;;;;13.55;7.65;;;;;;;4.71;71.97;101002.70;2119436;82;21209;-74
2020/12/20 12:19:06;;;;;;;14.13;8.70;;;;;;;4.78;71.92;101000.47;2115375;82;21127;-77
2020/12/20 12:22:07;;;;;;;14.50;7.00;;;;;;;4.81;71.78;101000.25;2117007;82;21164;-78
2020/12/20 12:25:10;;;;;;;13.35;8.00;;;;;;;4.79;71.73;101000.86;2123555;82;21196;-83
2020/12/20 12:28:11;;;;;;;13.43;7.65;;;;;;;4.78;71.41;101001.78;2121933;82;21174;-79
2020/12/20 12:31:13;;;;;;;12.93;7.40;;;;;;;4.76;71.35;101006.78;2116771;82;21154;-75
2020/12/20 12:34:14;;;;;;;12.70;7.80;;;;;;;4.65;71.70;101006.24;2112094;82;21090;-79
2020/12/20 12:37:16;;;;;;;10.98;7.30;;;;;;;4.60;71.57;101000.46;2119263;82;21173;-84
2020/12/20 12:40:18;;;;;;;11.68;7.70;;;;;;;4.54;71.58;101004.84;2122580;82;21176;-80
2020/12/20 12:43:20;;;;;;;13.40;8.20;;;;;;;4.49;71.63;101000.72;2115312;82;21141;-77
2020/12/20 12:46:21;;;;;;;12.43;7.25;;;;;;;4.46;71.94;101007.50;2098375;82;21090;-80
2020/12/20 12:49:25;;;;;;;11.08;6.97;;;;;;;4.46;71.85;101011.92;2116077;82;21762;-77
2020/12/20 12:52:27;;;;;;;13.58;7.08;;;;;;;4.45;71.61;101011.09;2119424;82;21517;-79
2020/12/20 12:55:30;;;;;;;13.90;8.10;;;;;;;4.41;71.61;101013.55;2117053;82;21217;-78
2020/12/20 12:58:31;;;;;;;17.37;9.08;;;;;;;4.37;71.73;101009.46;2114084;82;21142;-76
2020/12/20 13:01:33;;;;;;;15.20;9.10;;;;;;;4.32;72.03;101014.18;2121966;82;21216;-80
2020/12/20 13:04:35;;;;;;;14.93;8.13;;;;;;;4.27;72.24;101005.77;2117646;82;21157;-75
2020/12/20 13:07:37;;;;;;;13.03;7.60;;;;;;;4.25;72.30;101005.02;2121139;82;21114;-85
2020/12/20 13:10:38;;;;;;;20.23;7.83;;;;;;;4.22;72.30;101009.17;2117895;82;21208;-81
2020/12/20 13:13:41;;;;;;;16.40;8.18;;;;;;;4.18;72.09;101005.09;2121984;82;21253;-72
2020/12/20 13:16:49;;;;;;;12.53;8.25;;;;;;;4.14;72.15;101000.52;2124009;82;21184;-84
2020/12/20 13:19:50;;;;;;;11.97;7.75;;;;;;;4.11;72.39;100995.92;2118666;82;21173;-80
2020/12/20 13:22:52;;;;;;;12.93;7.17;;;;;;;4.09;72.42;100986.02;2102963;83;21165;-81
2020/12/20 13:25:54;;;;;;;10.90;6.97;;;;;;;4.06;72.52;100987.54;2122127;82;21165;-84
2020/12/20 13:28:55;;;;;;;11.48;6.97;;;;;;;4.01;72.34;100982.59;2122389;82;21201;-84
2020/12/20 13:31:57;;;;;;;12.28;7.25;;;;;;;3.97;72.34;100988.52;2120257;82;21153;-77
2020/12/20 13:35:00;;;;;;;11.53;6.05;;;;;;;3.95;72.36;100991.72;2112584;82;21208;-75
2020/12/20 13:38:01;;;;;;;8.50;6.20;;;;;;;3.90;72.31;100999.05;2124855;82;21220;-76
2020/12/20 13:41:03;;;;;;;8.73;6.10;;;;;;;3.82;72.39;100994.78;2118046;82;21629;-75
2020/12/20 13:44:04;;;;;;;10.93;6.47;;;;;;;3.76;72.59;100993.88;2120260;82;21177;-79
2020/12/20 13:47:06;;;;;;;9.08;6.10;;;;;;;3.70;72.70;100989.87;2119996;82;21524;-75
2020/12/20 13:50:07;;;;;;;9.23;6.10;;;;;;;3.69;72.78;100994.77;2120662;82;21509;-74
2020/12/20 13:53:09;;;;;;;10.68;6.72;;;;;;;3.68;72.78;100991.75;2121306;82;21133;-75
2020/12/20 13:56:10;;;;;;;10.58;6.08;;;;;;;3.66;72.82;100990.17;2123047;82;21793;-79
2020/12/20 13:59:12;;;;;;;8.50;6.28;;;;;;;3.63;72.79;100991.20;2121735;82;21079;-73